createdAt,value
2018-04-22T00:00:20.393Z,83.94
2018-04-22T00:01:20.547Z,83.65
2018-04-22T00:02:20.700Z,84.42
2018-04-22T00:03:20.854Z,84.32
2018-04-22T00:04:21.012Z,84.52
2018-04-22T00:05:21.164Z,83.94
2018-04-22T00:06:21.316Z,84.32
2018-04-22T00:07:21.470Z,84.61
2018-04-22T00:08:21.621Z,84.70
2018-04-22T00:09:21.777Z,83.65
2018-04-22T00:10:21.927Z,83.94
2018-04-22T00:11:22.083Z,83.84
2018-04-22T00:12:22.238Z,84.03
2018-04-22T00:13:22.388Z,83.75
2018-04-22T00:14:22.544Z,83.46
2018-04-22T00:15:22.695Z,83.46
2018-04-22T00:16:22.847Z,83.65
2018-04-22T00:17:23.001Z,83.17
2018-04-22T00:18:23.153Z,83.65
2018-04-22T00:19:23.310Z,83.94
2018-04-22T00:20:23.464Z,83.75
2018-04-22T00:21:23.620Z,83.56
2018-04-22T00:22:23.774Z,83.08
2018-04-22T00:23:23.926Z,83.94
2018-04-22T00:24:24.078Z,84.13
2018-04-22T00:25:24.231Z,84.23
2018-04-22T00:26:24.385Z,84.70
2018-04-22T00:27:24.536Z,84.61
2018-04-22T00:28:24.689Z,85.09
2018-04-22T00:29:24.879Z,85.38
2018-04-22T00:30:24.994Z,85.28
2018-04-22T00:31:25.152Z,85.38
2018-04-22T00:32:25.310Z,85.38
2018-04-22T00:33:25.460Z,86.04
2018-04-22T00:34:25.615Z,85.09
2018-04-22T00:35:25.771Z,85.28
2018-04-22T00:36:25.925Z,85.42
2018-04-22T00:37:26.078Z,84.89
2018-04-22T00:38:26.229Z,84.85
2018-04-22T00:39:26.383Z,85.14
2018-04-22T00:40:26.540Z,85.81
2018-04-22T00:41:26.695Z,85.81
2018-04-22T00:42:26.847Z,86.00
2018-04-22T00:43:27.047Z,85.33
2018-04-22T00:44:27.154Z,85.05
2018-04-22T00:45:27.309Z,85.05
2018-04-22T00:46:27.460Z,86.00
2018-04-22T00:47:27.618Z,86.10
2018-04-22T00:48:27.764Z,85.71
2018-04-22T00:49:27.917Z,86.76
2018-04-22T00:50:28.069Z,87.34
2018-04-22T00:51:28.226Z,87.48
2018-04-22T00:52:28.378Z,88.10
2018-04-22T00:53:28.530Z,87.68
2018-04-22T00:54:28.686Z,88.25
2018-04-22T00:55:28.830Z,87.87
2018-04-22T00:56:28.985Z,87.68
2018-04-22T00:57:29.140Z,88.06
2018-04-22T00:58:29.291Z,88.82
2018-04-22T00:59:29.442Z,88.54
2018-04-22T01:00:29.595Z,89.01
2018-04-22T01:01:29.748Z,89.39
2018-04-22T01:02:29.905Z,89.30
2018-04-22T01:03:30.053Z,88.73
2018-04-22T01:04:30.205Z,89.30
2018-04-22T01:05:30.359Z,89.39
2018-04-22T01:06:30.516Z,89.20
2018-04-22T01:07:30.666Z,88.82
2018-04-22T01:08:30.819Z,89.49
2018-04-22T01:09:30.973Z,89.49
2018-04-22T01:10:31.124Z,88.44
2018-04-22T01:11:31.277Z,88.63
2018-04-22T01:12:31.428Z,88.54
2018-04-22T01:13:31.584Z,89.59
2018-04-22T01:14:31.736Z,89.97
2018-04-22T01:15:31.887Z,89.87
2018-04-22T01:16:32.040Z,89.30
2018-04-22T01:17:32.193Z,89.68
2018-04-22T01:18:32.345Z,89.30
2018-04-22T01:19:32.496Z,90.21
2018-04-22T01:20:32.646Z,89.83
2018-04-22T01:21:32.802Z,90.02
2018-04-22T01:22:32.956Z,90.69
2018-04-22T01:23:33.110Z,90.31
2018-04-22T01:24:33.266Z,90.59
2018-04-22T01:25:33.411Z,90.69
2018-04-22T01:26:33.564Z,90.78
2018-04-22T01:27:33.726Z,90.21
2018-04-22T01:28:33.870Z,90.97
2018-04-22T01:29:34.022Z,90.40
2018-04-22T01:30:34.172Z,90.78
2018-04-22T01:31:34.326Z,90.88
2018-04-22T01:32:34.479Z,90.88
2018-04-22T01:33:34.636Z,90.97
2018-04-22T01:34:34.787Z,90.97
2018-04-22T01:35:34.943Z,90.50
2018-04-22T01:36:35.098Z,90.11
2018-04-22T01:37:35.251Z,90.02
2018-04-22T01:38:35.399Z,90.59
2018-04-22T01:39:35.557Z,90.88
2018-04-22T01:40:35.706Z,90.78
2018-04-22T01:41:35.859Z,90.50
2018-04-22T01:42:36.010Z,90.78
2018-04-22T01:43:36.164Z,90.69
2018-04-22T01:44:36.318Z,90.88
2018-04-22T01:45:36.468Z,90.78
2018-04-22T01:46:36.622Z,91.26
2018-04-22T01:47:36.768Z,91.07
2018-04-22T01:48:36.919Z,90.31
2018-04-22T01:49:37.069Z,90.97
2018-04-22T01:50:37.218Z,90.50
2018-04-22T01:51:37.373Z,90.88
2018-04-22T01:52:37.526Z,90.78
2018-04-22T01:53:37.679Z,90.69
2018-04-22T01:54:37.833Z,90.78
2018-04-22T01:55:37.984Z,90.78
2018-04-22T01:56:38.135Z,90.78
2018-04-22T01:57:38.296Z,90.97
2018-04-22T01:58:38.439Z,90.78
2018-04-22T01:59:38.591Z,90.50
2018-04-22T02:00:38.743Z,90.59
2018-04-22T02:01:38.895Z,90.78
2018-04-22T02:02:39.049Z,90.31
2018-04-22T02:03:39.202Z,90.50
2018-04-22T02:04:39.354Z,90.59
2018-04-22T02:05:39.509Z,90.97
2018-04-22T02:06:39.661Z,90.78
2018-04-22T02:07:39.814Z,90.21
2018-04-22T02:08:39.967Z,90.21
2018-04-22T02:09:40.119Z,90.21
2018-04-22T02:10:40.280Z,89.45
2018-04-22T02:11:40.424Z,89.25
2018-04-22T02:12:40.584Z,89.45
2018-04-22T02:13:40.734Z,90.02
2018-04-22T02:14:40.885Z,89.16
2018-04-22T02:15:41.034Z,90.02
2018-04-22T02:16:41.189Z,89.45
2018-04-22T02:17:41.340Z,89.54
2018-04-22T02:18:41.491Z,89.92
2018-04-22T02:19:41.648Z,90.31
2018-04-22T02:20:41.795Z,90.45
2018-04-22T02:21:41.948Z,91.12
2018-04-22T02:22:42.100Z,91.21
2018-04-22T02:23:42.251Z,91.41
2018-04-22T02:24:42.409Z,91.78
2018-04-22T02:25:42.562Z,91.78
2018-04-22T02:26:42.711Z,91.69
2018-04-22T02:27:42.863Z,91.60
2018-04-22T02:28:43.017Z,91.41
2018-04-22T02:29:43.169Z,91.41
2018-04-22T02:30:43.320Z,91.60
2018-04-22T02:31:43.476Z,92.36
2018-04-22T02:32:43.626Z,92.17
2018-04-22T02:33:43.780Z,92.07
2018-04-22T02:34:43.932Z,92.36
2018-04-22T02:35:44.080Z,92.36
2018-04-22T02:36:44.234Z,91.78
2018-04-22T02:37:44.384Z,91.41
2018-04-22T02:38:44.537Z,92.17
2018-04-22T02:39:44.688Z,91.78
2018-04-22T02:40:44.843Z,92.07
2018-04-22T02:41:45.002Z,92.26
2018-04-22T02:42:45.149Z,91.78
2018-04-22T02:43:45.298Z,91.21
2018-04-22T02:44:45.451Z,91.50
2018-04-22T02:45:45.603Z,91.21
2018-04-22T02:46:45.768Z,91.78
2018-04-22T02:47:45.907Z,91.21
2018-04-22T02:48:46.060Z,91.21
2018-04-22T02:49:46.211Z,90.83
2018-04-22T02:50:46.363Z,91.50
2018-04-22T02:51:46.514Z,91.69
2018-04-22T02:52:46.665Z,92.17
2018-04-22T02:53:46.818Z,92.17
2018-04-22T02:54:46.970Z,91.98
2018-04-22T02:55:47.119Z,92.07
2018-04-22T02:56:47.270Z,92.17
2018-04-22T02:57:47.421Z,92.26
2018-04-22T02:58:47.576Z,92.36
2018-04-22T02:59:47.731Z,92.74
2018-04-22T03:00:47.882Z,92.79
2018-04-22T03:01:48.042Z,92.55
2018-04-22T03:02:48.182Z,92.26
2018-04-22T03:03:48.336Z,92.17
2018-04-22T03:04:48.488Z,91.69
2018-04-22T03:05:48.640Z,91.78
2018-04-22T03:06:48.794Z,91.41
2018-04-22T03:07:48.944Z,91.21
2018-04-22T03:08:49.096Z,91.31
2018-04-22T03:09:49.247Z,91.60
2018-04-22T03:10:49.398Z,91.98
2018-04-22T03:11:49.551Z,92.07
2018-04-22T03:12:49.704Z,92.36
2018-04-22T03:13:49.853Z,92.17
2018-04-22T03:14:50.006Z,92.41
2018-04-22T03:15:50.157Z,92.32
2018-04-22T03:16:50.314Z,92.17
2018-04-22T03:17:50.463Z,92.74
2018-04-22T03:18:50.618Z,92.79
2018-04-22T03:19:50.767Z,92.55
2018-04-22T03:20:50.918Z,92.03
2018-04-22T03:21:51.069Z,93.17
2018-04-22T03:22:51.224Z,92.60
2018-04-22T03:23:51.373Z,92.88
2018-04-22T03:24:51.525Z,93.36
2018-04-22T03:25:51.679Z,93.36
2018-04-22T03:26:51.831Z,93.46
2018-04-22T03:27:51.980Z,93.55
2018-04-22T03:28:52.133Z,94.03
2018-04-22T03:29:52.285Z,94.60
2018-04-22T03:30:52.435Z,94.03
2018-04-22T03:31:52.590Z,94.03
2018-04-22T03:32:52.748Z,94.22
2018-04-22T03:33:52.895Z,94.03
2018-04-22T03:34:53.047Z,93.65
2018-04-22T03:35:53.197Z,93.46
2018-04-22T03:36:53.347Z,93.36
2018-04-22T03:37:53.498Z,93.65
2018-04-22T03:38:53.651Z,93.17
2018-04-22T03:39:53.801Z,93.93
2018-04-22T03:40:53.945Z,94.03
2018-04-22T03:41:54.095Z,94.03
2018-04-22T03:42:54.249Z,94.79
2018-04-22T03:43:54.401Z,94.51
2018-04-22T03:44:54.548Z,94.22
2018-04-22T03:45:54.700Z,95.17
2018-04-22T03:46:54.859Z,95.46
2018-04-22T03:47:55.005Z,95.17
2018-04-22T03:48:55.159Z,94.93
2018-04-22T03:49:55.309Z,95.46
2018-04-22T03:50:55.462Z,94.32
2018-04-22T03:51:55.615Z,94.32
2018-04-22T03:52:55.766Z,94.03
2018-04-22T03:53:55.920Z,93.55
2018-04-22T03:54:56.072Z,93.27
2018-04-22T03:55:56.223Z,93.46
2018-04-22T03:56:56.375Z,92.41
2018-04-22T03:57:56.527Z,92.79
2018-04-22T03:58:56.676Z,92.69
2018-04-22T03:59:56.830Z,92.50
2018-04-22T04:00:56.983Z,92.50
2018-04-22T04:01:57.135Z,92.88
2018-04-22T04:02:57.289Z,92.69
2018-04-22T04:03:57.439Z,93.17
2018-04-22T04:04:57.595Z,93.17
2018-04-22T04:05:57.779Z,93.36
2018-04-22T04:06:57.895Z,92.98
2018-04-22T04:07:58.049Z,93.08
2018-04-22T04:08:58.200Z,93.27
2018-04-22T04:09:58.354Z,93.84
2018-04-22T04:10:58.505Z,94.22
2018-04-22T04:11:58.669Z,94.22
2018-04-22T04:12:58.805Z,93.84
2018-04-22T04:13:58.958Z,94.41
2018-04-22T04:14:59.109Z,94.32
2018-04-22T04:15:59.259Z,94.37
2018-04-22T04:16:59.413Z,94.65
2018-04-22T04:17:59.563Z,94.65
2018-04-22T04:18:59.717Z,95.22
2018-04-22T04:19:59.867Z,95.32
2018-04-22T04:21:00.019Z,95.32
2018-04-22T04:22:00.173Z,95.22
2018-04-22T04:23:00.325Z,95.22
2018-04-22T04:24:00.476Z,95.32
2018-04-22T04:25:00.627Z,95.32
2018-04-22T04:26:00.780Z,95.12
2018-04-22T04:27:00.932Z,95.12
2018-04-22T04:28:01.080Z,95.32
2018-04-22T04:29:01.231Z,95.51
2018-04-22T04:30:01.391Z,95.41
2018-04-22T04:31:01.534Z,95.32
2018-04-22T04:32:01.689Z,95.03
2018-04-22T04:33:01.844Z,95.12
2018-04-22T04:34:01.993Z,95.03
2018-04-22T04:35:02.145Z,95.03
2018-04-22T04:36:02.321Z,94.56
2018-04-22T04:37:02.451Z,95.41
2018-04-22T04:38:02.602Z,94.93
2018-04-22T04:39:02.754Z,95.12
2018-04-22T04:40:02.907Z,95.61
2018-04-22T04:41:03.057Z,95.51
2018-04-22T04:42:03.212Z,95.32
2018-04-22T04:43:03.359Z,96.08
2018-04-22T04:44:03.517Z,95.98
2018-04-22T04:45:03.667Z,95.61
2018-04-22T04:46:03.818Z,95.98
2018-04-22T04:47:03.970Z,94.89
2018-04-22T04:48:04.121Z,95.27
2018-04-22T04:49:04.275Z,95.56
2018-04-22T04:50:04.427Z,95.27
2018-04-22T04:51:04.579Z,94.60
2018-04-22T04:52:04.733Z,94.60
2018-04-22T04:53:04.883Z,94.22
2018-04-22T04:54:05.034Z,93.93
2018-04-22T04:55:05.186Z,94.22
2018-04-22T04:56:05.339Z,94.32
2018-04-22T04:57:05.490Z,94.89
2018-04-22T04:58:05.642Z,95.27
2018-04-22T04:59:05.798Z,95.56
2018-04-22T05:00:05.945Z,95.56
2018-04-22T05:01:06.098Z,95.17
2018-04-22T05:02:06.251Z,94.89
2018-04-22T05:03:06.402Z,94.32
2018-04-22T05:04:06.554Z,94.60
2018-04-22T05:05:06.705Z,94.98
2018-04-22T05:06:06.856Z,94.41
2018-04-22T05:07:07.007Z,95.46
2018-04-22T05:08:07.155Z,94.98
2018-04-22T05:09:07.307Z,94.98
2018-04-22T05:10:07.460Z,94.98
2018-04-22T05:11:07.610Z,95.46
2018-04-22T05:12:07.760Z,94.98
2018-04-22T05:13:07.913Z,94.98
2018-04-22T05:14:08.068Z,94.79
2018-04-22T05:15:08.219Z,94.89
2018-04-22T05:16:08.372Z,94.89
2018-04-22T05:17:08.525Z,95.17
2018-04-22T05:18:08.675Z,95.37
2018-04-22T05:19:08.826Z,94.98
2018-04-22T05:20:08.982Z,94.98
2018-04-22T05:21:09.135Z,95.56
2018-04-22T05:22:09.286Z,95.17
2018-04-22T05:23:09.438Z,95.56
2018-04-22T05:24:09.591Z,95.08
2018-04-22T05:25:09.745Z,95.37
2018-04-22T05:26:09.896Z,95.37
2018-04-22T05:27:10.049Z,94.89
2018-04-22T05:28:10.202Z,95.17
2018-04-22T05:29:10.354Z,95.08
2018-04-22T05:30:10.508Z,95.46
2018-04-22T05:31:10.666Z,95.37
2018-04-22T05:32:10.811Z,95.56
2018-04-22T05:33:10.969Z,94.98
2018-04-22T05:34:11.120Z,94.60
2018-04-22T05:35:11.270Z,94.36
2018-04-22T05:36:11.424Z,94.46
2018-04-22T05:37:11.575Z,94.27
2018-04-22T05:38:11.728Z,93.98
2018-04-22T05:39:11.890Z,93.51
2018-04-22T05:40:12.035Z,93.41
2018-04-22T05:41:12.188Z,92.55
2018-04-22T05:42:12.343Z,92.17
2018-04-22T05:43:12.492Z,92.17
2018-04-22T05:44:12.643Z,91.50
2018-04-22T05:45:12.797Z,92.17
2018-04-22T05:46:12.951Z,92.46
2018-04-22T05:47:13.101Z,93.02
2018-04-22T05:48:13.256Z,92.21
2018-04-22T05:49:13.407Z,92.12
2018-04-22T05:50:13.560Z,91.74
2018-04-22T05:51:13.716Z,90.69
2018-04-22T05:52:13.862Z,90.78
2018-04-22T05:53:14.015Z,90.50
2018-04-22T05:54:14.169Z,90.59
2018-04-22T05:55:14.324Z,89.92
2018-04-22T05:56:14.474Z,90.35
2018-04-22T05:57:14.628Z,89.59
2018-04-22T05:58:14.781Z,88.92
2018-04-22T05:59:14.936Z,88.92
2018-04-22T06:00:15.088Z,88.87
2018-04-22T06:01:15.241Z,88.15
2018-04-22T06:02:15.407Z,88.01
2018-04-22T06:03:15.547Z,87.62
2018-04-22T06:04:15.699Z,87.43
2018-04-22T06:05:15.856Z,87.68
2018-04-22T06:06:16.007Z,87.34
2018-04-22T06:07:16.161Z,87.72
2018-04-22T06:08:16.317Z,87.43
2018-04-22T06:09:16.468Z,86.67
2018-04-22T06:10:16.622Z,87.15
2018-04-22T06:11:16.778Z,87.15
2018-04-22T06:12:16.932Z,86.71
2018-04-22T06:13:17.086Z,86.61
2018-04-22T06:14:17.228Z,86.33
2018-04-22T06:15:17.377Z,85.47
2018-04-22T06:16:17.534Z,86.04
2018-04-22T06:17:17.707Z,86.04
2018-04-22T06:18:17.841Z,86.19
2018-04-22T06:19:17.999Z,87.62
2018-04-22T06:20:18.149Z,87.53
2018-04-22T06:21:18.304Z,87.34
2018-04-22T06:22:18.458Z,88.29
2018-04-22T06:23:18.611Z,88.20
2018-04-22T06:24:18.769Z,88.34
2018-04-22T06:25:18.920Z,88.48
2018-04-22T06:26:19.076Z,88.29
2018-04-22T06:27:19.229Z,87.62
2018-04-22T06:28:19.390Z,87.24
2018-04-22T06:29:19.536Z,87.15
2018-04-22T06:30:19.695Z,87.05
2018-04-22T06:31:19.848Z,86.52
2018-04-22T06:32:19.998Z,87.00
2018-04-22T06:33:20.153Z,87.48
2018-04-22T06:34:20.307Z,87.38
2018-04-22T06:35:20.458Z,87.24
2018-04-22T06:36:20.615Z,87.34
2018-04-22T06:37:20.770Z,87.95
2018-04-22T06:38:20.927Z,87.57
2018-04-22T06:39:21.076Z,88.43
2018-04-22T06:40:21.269Z,88.24
2018-04-22T06:41:21.382Z,87.48
2018-04-22T06:42:21.538Z,87.48
2018-04-22T06:43:21.692Z,86.90
2018-04-22T06:44:21.845Z,86.43
2018-04-22T06:45:22.002Z,86.04
2018-04-22T06:46:22.155Z,87.04
2018-04-22T06:47:22.309Z,87.04
2018-04-22T06:48:22.461Z,86.18
2018-04-22T06:49:22.616Z,86.28
2018-04-22T06:50:22.771Z,85.51
2018-04-22T06:51:22.928Z,85.32
2018-04-22T06:52:23.080Z,85.51
2018-04-22T06:53:23.245Z,85.71
2018-04-22T06:54:23.389Z,85.80
2018-04-22T06:55:23.542Z,87.33
2018-04-22T06:56:23.697Z,87.04
2018-04-22T06:57:23.851Z,85.89
2018-04-22T06:58:24.007Z,85.17
2018-04-22T06:59:24.163Z,84.79
2018-04-22T07:00:24.321Z,85.08
2018-04-22T07:01:24.472Z,84.98
2018-04-22T07:02:24.626Z,85.94
2018-04-22T07:03:24.780Z,84.98
2018-04-22T07:04:24.925Z,84.12
2018-04-22T07:05:25.126Z,83.59
2018-04-22T07:06:25.250Z,83.30
2018-04-22T07:07:25.404Z,83.11
2018-04-22T07:08:25.560Z,82.63
2018-04-22T07:09:25.718Z,83.30
2018-04-22T07:10:25.875Z,83.30
2018-04-22T07:11:26.028Z,83.87
2018-04-22T07:12:26.181Z,85.12
2018-04-22T07:13:26.345Z,83.45
2018-04-22T07:14:26.498Z,83.54
2018-04-22T07:15:26.664Z,83.68
2018-04-22T07:16:26.796Z,83.64
2018-04-22T07:17:27.001Z,83.01
2018-04-22T07:18:27.163Z,83.59
2018-04-22T07:19:27.314Z,83.39
2018-04-22T07:20:27.476Z,83.39
2018-04-22T07:21:27.629Z,83.20
2018-04-22T07:22:27.783Z,82.92
2018-04-22T07:23:27.937Z,83.49
2018-04-22T07:24:28.090Z,82.92
2018-04-22T07:25:28.244Z,83.11
2018-04-22T07:26:28.398Z,82.67
2018-04-22T07:27:28.554Z,82.57
2018-04-22T07:28:28.712Z,82.38
2018-04-22T07:29:28.864Z,83.53
2018-04-22T07:30:29.019Z,82.90
2018-04-22T07:31:29.171Z,81.85
2018-04-22T07:32:29.324Z,80.41
2018-04-22T07:33:29.485Z,80.07
2018-04-22T07:34:29.648Z,79.74
2018-04-22T07:35:29.784Z,80.22
2018-04-22T07:36:29.943Z,79.83
2018-04-22T07:37:30.098Z,79.59
2018-04-22T07:38:30.253Z,79.21
2018-04-22T07:39:30.412Z,78.92
2018-04-22T07:40:30.563Z,79.21
2018-04-22T07:41:30.719Z,79.78
2018-04-22T07:42:30.914Z,79.49
2018-04-22T07:43:31.034Z,78.34
2018-04-22T07:44:31.186Z,78.28
2018-04-22T07:45:31.342Z,77.71
2018-04-22T07:46:31.498Z,77.51
2018-04-22T07:47:31.655Z,77.04
2018-04-22T07:48:31.809Z,76.59
2018-04-22T07:49:31.968Z,76.02
2018-04-22T07:50:32.125Z,76.69
2018-04-22T07:51:32.281Z,76.94
2018-04-22T07:52:32.437Z,76.94
2018-04-22T07:53:32.615Z,77.46
2018-04-22T07:54:32.755Z,77.17
2018-04-22T07:55:32.910Z,77.08
2018-04-22T07:56:33.067Z,77.26
2018-04-22T07:57:33.222Z,76.69
2018-04-22T07:58:33.382Z,76.59
2018-04-22T07:59:33.540Z,76.69
2018-04-22T08:00:33.693Z,76.25
2018-04-22T08:01:33.853Z,75.67
2018-04-22T08:02:34.007Z,76.06
2018-04-22T08:03:34.164Z,75.48
2018-04-22T08:04:34.323Z,76.06
2018-04-22T08:05:34.486Z,75.48
2018-04-22T08:06:34.635Z,75.57
2018-04-22T08:07:34.792Z,75.38
2018-04-22T08:08:34.950Z,75.29
2018-04-22T08:09:35.103Z,75.29
2018-04-22T08:10:35.260Z,75.29
2018-04-22T08:11:35.416Z,75.48
2018-04-22T08:12:35.574Z,75.87
2018-04-22T08:13:35.731Z,75.29
2018-04-22T08:14:35.904Z,75.29
2018-04-22T08:15:36.063Z,75.20
2018-04-22T08:16:36.220Z,75.32
2018-04-22T08:17:36.376Z,74.27
2018-04-22T08:18:36.532Z,74.65
2018-04-22T08:19:36.689Z,75.17
2018-04-22T08:20:36.880Z,75.07
2018-04-22T08:21:37.027Z,75.07
2018-04-22T08:22:37.150Z,73.98
2018-04-22T08:23:37.299Z,73.06
2018-04-22T08:24:37.453Z,72.58
2018-04-22T08:25:37.610Z,72.48
2018-04-22T08:26:37.774Z,71.61
2018-04-22T08:27:37.927Z,71.46
2018-04-22T08:28:38.083Z,70.98
2018-04-22T08:29:38.239Z,71.08
2018-04-22T08:30:38.400Z,70.68
2018-04-22T08:31:38.555Z,71.36
2018-04-22T08:32:38.712Z,72.42
2018-04-22T08:33:38.869Z,73.00
2018-04-22T08:34:39.028Z,71.46
2018-04-22T08:35:39.197Z,71.08
2018-04-22T08:36:39.346Z,71.17
2018-04-22T08:37:39.504Z,71.46
2018-04-22T08:38:39.663Z,71.49
2018-04-22T08:39:39.823Z,71.20
2018-04-22T08:40:39.978Z,71.43
2018-04-22T08:41:40.138Z,70.86
2018-04-22T08:42:40.298Z,69.79
2018-04-22T08:43:40.456Z,70.31
2018-04-22T08:44:40.614Z,70.31
2018-04-22T08:45:40.768Z,69.54
2018-04-22T08:46:40.928Z,68.61
2018-04-22T08:47:41.088Z,66.78
2018-04-22T08:48:41.244Z,65.53
2018-04-22T08:49:41.406Z,64.95
2018-04-22T08:50:41.615Z,64.95
2018-04-22T08:51:41.723Z,64.47
2018-04-22T08:52:41.894Z,66.43
2018-04-22T08:53:42.050Z,66.20
2018-04-22T08:54:42.212Z,65.72
2018-04-22T08:55:42.368Z,65.24
2018-04-22T08:56:42.557Z,64.47
2018-04-22T08:57:42.686Z,64.40
2018-04-22T08:58:42.845Z,63.50
2018-04-22T08:59:43.010Z,64.28
2018-04-22T09:00:43.162Z,64.86
2018-04-22T09:01:43.330Z,65.91
2018-04-22T09:02:43.487Z,64.59
2018-04-22T09:03:43.647Z,63.63
2018-04-22T09:04:43.808Z,63.06
2018-04-22T09:05:43.969Z,63.28
2018-04-22T09:06:44.128Z,63.67
2018-04-22T09:07:44.288Z,64.89
2018-04-22T09:08:44.449Z,63.82
2018-04-22T09:09:44.608Z,63.82
2018-04-22T09:10:44.769Z,64.40
2018-04-22T09:11:44.931Z,64.40
2018-04-22T09:12:45.090Z,65.17
2018-04-22T09:13:45.254Z,65.37
2018-04-22T09:14:45.408Z,65.27
2018-04-22T09:15:45.698Z,66.14
2018-04-22T09:16:45.711Z,63.24
2018-04-22T09:17:45.871Z,62.99
2018-04-22T09:18:46.039Z,62.70
2018-04-22T09:19:46.196Z,62.41
2018-04-22T09:20:46.355Z,63.24
2018-04-22T09:21:46.514Z,62.57
2018-04-22T09:22:46.678Z,63.34
2018-04-22T09:23:46.838Z,62.51
2018-04-22T09:24:47.006Z,62.12
2018-04-22T09:25:47.159Z,61.83
2018-04-22T09:26:47.319Z,62.63
2018-04-22T09:27:47.478Z,65.34
2018-04-22T09:28:47.641Z,63.31
2018-04-22T09:29:47.799Z,63.63
2018-04-22T09:30:47.958Z,62.82
2018-04-22T09:31:48.123Z,64.28
2018-04-22T09:32:48.280Z,64.50
2018-04-22T09:33:48.444Z,62.86
2018-04-22T09:34:48.603Z,64.31
2018-04-22T09:35:48.761Z,62.76
2018-04-22T09:36:48.921Z,63.05
2018-04-22T09:37:49.083Z,60.93
2018-04-22T09:38:49.241Z,60.44
2018-04-22T09:39:49.409Z,61.38
2018-04-22T09:40:49.562Z,63.53
2018-04-22T09:41:49.727Z,61.51
2018-04-22T09:42:49.886Z,61.38
2018-04-22T09:43:50.043Z,61.09
2018-04-22T09:44:50.204Z,61.70
2018-04-22T09:45:50.368Z,62.86
2018-04-22T09:46:50.533Z,62.31
2018-04-22T09:47:50.686Z,61.44
2018-04-22T09:48:50.846Z,60.67
2018-04-22T09:49:51.021Z,60.89
2018-04-22T09:50:51.166Z,61.66
2018-04-22T09:51:51.328Z,62.05
2018-04-22T09:52:51.488Z,61.86
2018-04-22T09:53:51.646Z,59.99
2018-04-22T09:54:51.806Z,61.05
2018-04-22T09:55:51.970Z,60.28
2018-04-22T09:56:52.128Z,60.38
2018-04-22T09:57:52.292Z,59.99
2018-04-22T09:58:52.455Z,60.21
2018-04-22T09:59:52.613Z,59.53
2018-04-22T10:00:52.784Z,59.28
2018-04-22T10:01:52.947Z,60.34
2018-04-22T10:02:53.107Z,60.63
2018-04-22T10:03:53.269Z,60.63
2018-04-22T10:04:53.459Z,58.92
2018-04-22T10:05:53.592Z,58.82
2018-04-22T10:06:53.752Z,57.86
2018-04-22T10:07:53.923Z,59.59
2018-04-22T10:08:54.079Z,58.44
2018-04-22T10:09:54.240Z,58.34
2018-04-22T10:10:54.439Z,57.86
2018-04-22T10:11:54.566Z,58.95
2018-04-22T10:12:54.728Z,57.76
2018-04-22T10:13:54.892Z,60.08
2018-04-22T10:14:55.062Z,60.27
2018-04-22T10:15:55.228Z,59.31
2018-04-22T10:16:55.387Z,59.11
2018-04-22T10:17:55.543Z,59.69
2018-04-22T10:18:55.704Z,60.27
2018-04-22T10:19:55.874Z,61.56
2018-04-22T10:20:56.029Z,61.18
2018-04-22T10:21:56.203Z,60.98
2018-04-22T10:22:56.351Z,60.98
2018-04-22T10:23:56.510Z,60.62
2018-04-22T10:24:56.671Z,58.78
2018-04-22T10:25:56.839Z,57.91
2018-04-22T10:26:56.998Z,58.78
2018-04-22T10:27:57.163Z,56.56
2018-04-22T10:28:57.321Z,57.45
2018-04-22T10:29:57.487Z,56.10
2018-04-22T10:30:57.647Z,54.94
2018-04-22T10:31:57.811Z,53.09
2018-04-22T10:32:57.971Z,54.38
2018-04-22T10:33:58.135Z,52.54
2018-04-22T10:34:58.298Z,51.76
2018-04-22T10:35:58.463Z,50.79
2018-04-22T10:36:58.622Z,50.34
2018-04-22T10:37:58.783Z,50.34
2018-04-22T10:38:58.946Z,48.69
2018-04-22T10:39:59.116Z,48.30
2018-04-22T10:40:59.275Z,49.00
2018-04-22T10:41:59.459Z,47.33
2018-04-22T10:42:59.596Z,48.22
2018-04-22T10:43:59.758Z,48.49
2018-04-22T10:44:59.925Z,48.13
2018-04-22T10:46:00.086Z,48.00
2018-04-22T10:47:00.247Z,47.16
2018-04-22T10:48:00.424Z,46.58
2018-04-22T10:49:00.593Z,45.80
2018-04-22T10:50:00.753Z,45.99
2018-04-22T10:51:00.920Z,46.55
2018-04-22T10:52:01.087Z,47.35
2018-04-22T10:53:01.249Z,46.41
2018-04-22T10:54:01.423Z,46.98
2018-04-22T10:55:01.574Z,45.92
2018-04-22T10:56:01.739Z,46.62
2018-04-22T10:57:01.902Z,46.33
2018-04-22T10:58:02.100Z,45.07
2018-04-22T10:59:02.229Z,44.48
2018-04-22T11:00:02.394Z,46.06
2018-04-22T11:01:02.563Z,45.38
2018-04-22T11:02:02.748Z,47.59
2018-04-22T11:03:02.892Z,46.25
2018-04-22T11:04:03.063Z,43.32
2018-04-22T11:05:03.270Z,42.54
2018-04-22T11:06:03.382Z,43.90
2018-04-22T11:07:03.544Z,44.21
2018-04-22T11:08:03.713Z,43.54
2018-04-22T11:09:03.880Z,42.27
2018-04-22T11:10:04.042Z,40.52
2018-04-22T11:11:04.205Z,40.33
2018-04-22T11:12:04.373Z,38.95
2018-04-22T11:13:04.534Z,39.62
2018-04-22T11:14:04.697Z,39.82
2018-04-22T11:15:04.866Z,40.01
2018-04-22T11:16:05.027Z,39.82
2018-04-22T11:17:05.191Z,41.26
2018-04-22T11:18:05.354Z,40.87
2018-04-22T11:19:05.519Z,41.57
2018-04-22T11:20:05.683Z,39.82
2018-04-22T11:21:05.848Z,40.31
2018-04-22T11:22:06.030Z,41.28
2018-04-22T11:23:06.173Z,41.47
2018-04-22T11:24:06.339Z,40.79
2018-04-22T11:25:06.505Z,40.42
2018-04-22T11:26:06.666Z,40.13
2018-04-22T11:27:06.830Z,39.84
2018-04-22T11:28:06.994Z,38.65
2018-04-22T11:29:07.157Z,39.45
2018-04-22T11:30:07.324Z,39.65
2018-04-22T11:31:07.485Z,38.48
2018-04-22T11:32:07.658Z,38.67
2018-04-22T11:33:07.821Z,38.77
2018-04-22T11:34:07.985Z,38.98
2018-04-22T11:35:08.148Z,38.79
2018-04-22T11:36:08.312Z,38.31
2018-04-22T11:37:08.480Z,39.18
2018-04-22T11:38:08.635Z,39.18
2018-04-22T11:39:08.799Z,39.37
2018-04-22T11:40:08.963Z,38.98
2018-04-22T11:41:09.127Z,38.62
2018-04-22T11:42:09.295Z,40.93
2018-04-22T11:43:09.458Z,39.86
2018-04-22T11:44:09.622Z,40.06
2018-04-22T11:45:09.784Z,41.32
2018-04-22T11:46:09.950Z,39.94
2018-04-22T11:47:10.117Z,39.67
2018-04-22T11:48:10.280Z,39.18
2018-04-22T11:49:10.453Z,40.15
2018-04-22T11:50:10.612Z,38.60
2018-04-22T11:51:10.775Z,39.06
2018-04-22T11:52:10.939Z,40.03
2018-04-22T11:53:11.104Z,39.94
2018-04-22T11:54:11.266Z,40.50
2018-04-22T11:55:11.431Z,41.28
2018-04-22T11:56:11.596Z,40.99
2018-04-22T11:57:11.762Z,41.18
2018-04-22T11:58:11.928Z,41.57
2018-04-22T11:59:12.091Z,41.77
2018-04-22T12:00:12.256Z,40.60
2018-04-22T12:01:12.431Z,40.13
2018-04-22T12:02:12.602Z,39.55
2018-04-22T12:03:12.763Z,39.55
2018-04-22T12:04:12.926Z,38.31
2018-04-22T12:05:13.092Z,38.79
2018-04-22T12:06:13.254Z,38.62
2018-04-22T12:07:13.419Z,38.62
2018-04-22T12:08:13.582Z,36.87
2018-04-22T12:09:13.745Z,37.93
2018-04-22T12:10:13.908Z,37.54
2018-04-22T12:11:14.072Z,41.73
2018-04-22T12:12:14.236Z,37.72
2018-04-22T12:13:14.402Z,38.79
2018-04-22T12:14:14.564Z,37.04
2018-04-22T12:15:14.728Z,37.16
2018-04-22T12:16:14.891Z,36.47
2018-04-22T12:17:15.055Z,36.77
2018-04-22T12:18:15.222Z,37.46
2018-04-22T12:19:15.385Z,35.23
2018-04-22T12:20:15.551Z,34.06
2018-04-22T12:21:15.713Z,34.06
2018-04-22T12:22:15.875Z,34.35
2018-04-22T12:23:16.042Z,35.42
2018-04-22T12:24:16.204Z,35.61
2018-04-22T12:25:16.370Z,35.13
2018-04-22T12:26:16.543Z,34.74
2018-04-22T12:27:16.704Z,35.31
2018-04-22T12:28:16.867Z,35.41
2018-04-22T12:29:17.028Z,35.60
2018-04-22T12:30:17.199Z,35.80
2018-04-22T12:31:17.365Z,35.60
2018-04-22T12:32:17.526Z,35.60
2018-04-22T12:33:17.690Z,34.94
2018-04-22T12:34:17.855Z,35.33
2018-04-22T12:35:18.020Z,36.47
2018-04-22T12:36:18.186Z,35.50
2018-04-22T12:37:18.350Z,35.31
2018-04-22T12:38:18.512Z,34.84
2018-04-22T12:39:18.675Z,34.64
2018-04-22T12:40:18.841Z,34.33
2018-04-22T12:41:19.002Z,34.92
2018-04-22T12:42:19.165Z,34.63
2018-04-22T12:43:19.329Z,34.45
2018-04-22T12:44:19.493Z,34.55
2018-04-22T12:45:19.657Z,33.48
2018-04-22T12:46:19.830Z,33.96
2018-04-22T12:47:19.989Z,33.86
2018-04-22T12:48:20.157Z,33.77
2018-04-22T12:49:20.327Z,32.89
2018-04-22T12:50:20.488Z,31.63
2018-04-22T12:51:20.656Z,31.34
2018-04-22T12:52:20.815Z,30.85
2018-04-22T12:53:20.977Z,31.82
2018-04-22T12:54:21.140Z,31.04